sensor_id;sensor_type;location;lat;lon;timestamp;P1;P2;P0
78063;PMS5003;67429;51.596;-3.264;2023-07-31T00:01:28;0;0;
78063;PMS5003;67429;51.596;-3.264;2023-07-31T00:03:53;0;0;
78063;PMS5003;67429;51.596;-3.264;2023-07-31T00:06:20;0;0;
78063;PMS5003;67429;51.596;-3.264;2023-07-31T00:08:44;0;0;
78063;PMS5003;67429;51.596;-3.264;2023-07-31T00:11:11;0;0;
78063;PMS5003;67429;51.596;-3.264;2023-07-31T00:13:36;0;0;
78063;PMS5003;67429;51.596;-3.264;2023-07-31T00:16:01;0;0;
78063;PMS5003;67429;51.596;-3.264;2023-07-31T00:18:26;0;0;
78063;PMS5003;67429;51.596;-3.264;2023-07-31T00:20:52;0;0;
78063;PMS5003;67429;51.596;-3.264;2023-07-31T00:23:19;0;0;
78063;PMS5003;67429;51.596;-3.264;2023-07-31T00:25:44;0;0;
78063;PMS5003;67429;51.596;-3.264;2023-07-31T00:28:09;0;0;
78063;PMS5003;67429;51.596;-3.264;2023-07-31T00:30:34;1;1;
78063;PMS5003;67429;51.596;-3.264;2023-07-31T00:32:59;0;0;
78063;PMS5003;67429;51.596;-3.264;2023-07-31T00:35:25;0;0;
78063;PMS5003;67429;51.596;-3.264;2023-07-31T00:37:50;0;0;
78063;PMS5003;67429;51.596;-3.264;2023-07-31T00:40:16;0;0;
78063;PMS5003;67429;51.596;-3.264;2023-07-31T00:42:41;0;0;
78063;PMS5003;67429;51.596;-3.264;2023-07-31T00:45:08;0;0;
78063;PMS5003;67429;51.596;-3.264;2023-07-31T00:47:32;1;1;
78063;PMS5003;67429;51.596;-3.264;2023-07-31T00:49:58;1;1;
78063;PMS5003;67429;51.596;-3.264;2023-07-31T00:52:23;1;1;
78063;PMS5003;67429;51.596;-3.264;2023-07-31T00:54:48;3;3;
78063;PMS5003;67429;51.596;-3.264;2023-07-31T00:57:14;5;5;
78063;PMS5003;67429;51.596;-3.264;2023-07-31T00:59:39;7;7;
78063;PMS5003;67429;51.596;-3.264;2023-07-31T01:02:05;8;8;
78063;PMS5003;67429;51.596;-3.264;2023-07-31T01:04:32;9;9;
78063;PMS5003;67429;51.596;-3.264;2023-07-31T01:06:58;10;9;
78063;PMS5003;67429;51.596;-3.264;2023-07-31T01:09:23;9;9;
78063;PMS5003;67429;51.596;-3.264;2023-07-31T01:11:48;8;8;
78063;PMS5003;67429;51.596;-3.264;2023-07-31T01:14:13;4;3;
78063;PMS5003;67429;51.596;-3.264;2023-07-31T01:16:40;6;6;
78063;PMS5003;67429;51.596;-3.264;2023-07-31T01:19:03;5;5;
78063;PMS5003;67429;51.596;-3.264;2023-07-31T01:21:43;9;9;
78063;PMS5003;67429;51.596;-3.264;2023-07-31T01:26:21;17;16;
78063;PMS5003;67429;51.596;-3.264;2023-07-31T01:28:49;21;19;
78063;PMS5003;67429;51.596;-3.264;2023-07-31T01:31:12;20;19;
78063;PMS5003;67429;51.596;-3.264;2023-07-31T01:33:37;20;20;
78063;PMS5003;67429;51.596;-3.264;2023-07-31T01:36:02;18;17;
78063;PMS5003;67429;51.596;-3.264;2023-07-31T01:38:27;16;16;
78063;PMS5003;67429;51.596;-3.264;2023-07-31T01:40:53;13;13;
78063;PMS5003;67429;51.596;-3.264;2023-07-31T01:43:18;8;8;
78063;PMS5003;67429;51.596;-3.264;2023-07-31T01:45:43;15;14;
78063;PMS5003;67429;51.596;-3.264;2023-07-31T01:48:08;13;13;
78063;PMS5003;67429;51.596;-3.264;2023-07-31T01:50:34;15;14;
78063;PMS5003;67429;51.596;-3.264;2023-07-31T01:53:00;15;15;
78063;PMS5003;67429;51.596;-3.264;2023-07-31T01:55:25;15;15;
78063;PMS5003;67429;51.596;-3.264;2023-07-31T01:57:50;9;9;
78063;PMS5003;67429;51.596;-3.264;2023-07-31T02:00:15;7;6;
78063;PMS5003;67429;51.596;-3.264;2023-07-31T02:02:40;8;8;
78063;PMS5003;67429;51.596;-3.264;2023-07-31T02:05:08;10;9;
78063;PMS5003;67429;51.596;-3.264;2023-07-31T02:07:31;12;12;
78063;PMS5003;67429;51.596;-3.264;2023-07-31T02:09:57;21;19;
78063;PMS5003;67429;51.596;-3.264;2023-07-31T02:12:22;24;23;
78063;PMS5003;67429;51.596;-3.264;2023-07-31T02:14:48;18;18;
78063;PMS5003;67429;51.596;-3.264;2023-07-31T02:17:15;18;17;
78063;PMS5003;67429;51.596;-3.264;2023-07-31T02:19:38;23;22;
78063;PMS5003;67429;51.596;-3.264;2023-07-31T02:22:04;19;17;
78063;PMS5003;67429;51.596;-3.264;2023-07-31T02:24:29;20;19;
78063;PMS5003;67429;51.596;-3.264;2023-07-31T02:26:54;18;16;
78063;PMS5003;67429;51.596;-3.264;2023-07-31T02:29:20;13;13;
78063;PMS5003;67429;51.596;-3.264;2023-07-31T02:31:47;15;14;
78063;PMS5003;67429;51.596;-3.264;2023-07-31T02:34:12;17;16;
78063;PMS5003;67429;51.596;-3.264;2023-07-31T02:36:37;15;13;
78063;PMS5003;67429;51.596;-3.264;2023-07-31T02:39:02;15;15;
78063;PMS5003;67429;51.596;-3.264;2023-07-31T02:41:27;15;13;
78063;PMS5003;67429;51.596;-3.264;2023-07-31T02:43:52;16;15;
78063;PMS5003;67429;51.596;-3.264;2023-07-31T02:46:18;13;12;
78063;PMS5003;67429;51.596;-3.264;2023-07-31T02:48:43;11;10;
78063;PMS5003;67429;51.596;-3.264;2023-07-31T02:51:09;7;7;
78063;PMS5003;67429;51.596;-3.264;2023-07-31T02:53:34;9;7;
78063;PMS5003;67429;51.596;-3.264;2023-07-31T02:55:59;9;9;
78063;PMS5003;67429;51.596;-3.264;2023-07-31T02:58:25;11;11;
78063;PMS5003;67429;51.596;-3.264;2023-07-31T03:00:50;10;10;
78063;PMS5003;67429;51.596;-3.264;2023-07-31T03:03:15;11;11;
78063;PMS5003;67429;51.596;-3.264;2023-07-31T03:05:42;11;10;
78063;PMS5003;67429;51.596;-3.264;2023-07-31T03:08:08;9;9;
78063;PMS5003;67429;51.596;-3.264;2023-07-31T03:10:32;10;10;
78063;PMS5003;67429;51.596;-3.264;2023-07-31T03:12:59;13;13;
78063;PMS5003;67429;51.596;-3.264;2023-07-31T03:15:23;19;17;
78063;PMS5003;67429;51.596;-3.264;2023-07-31T03:17:48;23;21;
78063;PMS5003;67429;51.596;-3.264;2023-07-31T03:20:15;20;19;
78063;PMS5003;67429;51.596;-3.264;2023-07-31T03:22:40;21;20;
78063;PMS5003;67429;51.596;-3.264;2023-07-31T03:25:07;24;22;
78063;PMS5003;67429;51.596;-3.264;2023-07-31T03:27:31;23;22;
78063;PMS5003;67429;51.596;-3.264;2023-07-31T03:29:56;23;23;
78063;PMS5003;67429;51.596;-3.264;2023-07-31T03:32:22;20;19;
78063;PMS5003;67429;51.596;-3.264;2023-07-31T03:34:47;22;22;
78063;PMS5003;67429;51.596;-3.264;2023-07-31T03:37:14;22;19;
78063;PMS5003;67429;51.596;-3.264;2023-07-31T03:39:38;21;21;
78063;PMS5003;67429;51.596;-3.264;2023-07-31T03:42:05;17;17;
78063;PMS5003;67429;51.596;-3.264;2023-07-31T03:44:30;20;18;
78063;PMS5003;67429;51.596;-3.264;2023-07-31T03:46:55;19;19;
78063;PMS5003;67429;51.596;-3.264;2023-07-31T03:49:21;22;22;
78063;PMS5003;67429;51.596;-3.264;2023-07-31T03:51:46;20;20;
78063;PMS5003;67429;51.596;-3.264;2023-07-31T03:54:13;24;22;
78063;PMS5003;67429;51.596;-3.264;2023-07-31T03:56:39;18;18;
78063;PMS5003;67429;51.596;-3.264;2023-07-31T03:59:03;17;17;
78063;PMS5003;67429;51.596;-3.264;2023-07-31T04:01:28;18;17;
78063;PMS5003;67429;51.596;-3.264;2023-07-31T04:03:53;18;17;
78063;PMS5003;67429;51.596;-3.264;2023-07-31T04:06:19;16;16;
78063;PMS5003;67429;51.596;-3.264;2023-07-31T04:08:45;15;15;
78063;PMS5003;67429;51.596;-3.264;2023-07-31T04:11:10;16;16;
78063;PMS5003;67429;51.596;-3.264;2023-07-31T04:13:37;10;9;
78063;PMS5003;67429;51.596;-3.264;2023-07-31T04:16:02;13;12;
78063;PMS5003;67429;51.596;-3.264;2023-07-31T04:18:27;12;12;
78063;PMS5003;67429;51.596;-3.264;2023-07-31T04:20:52;12;12;
78063;PMS5003;67429;51.596;-3.264;2023-07-31T04:23:17;14;13;
78063;PMS5003;67429;51.596;-3.264;2023-07-31T04:25:42;15;14;
78063;PMS5003;67429;51.596;-3.264;2023-07-31T04:28:08;11;10;
78063;PMS5003;67429;51.596;-3.264;2023-07-31T04:30:33;11;11;
78063;PMS5003;67429;51.596;-3.264;2023-07-31T04:32:59;15;14;
78063;PMS5003;67429;51.596;-3.264;2023-07-31T04:35:25;16;15;
78063;PMS5003;67429;51.596;-3.264;2023-07-31T04:37:50;14;13;
78063;PMS5003;67429;51.596;-3.264;2023-07-31T04:40:15;17;15;
78063;PMS5003;67429;51.596;-3.264;2023-07-31T04:42:40;14;13;
78063;PMS5003;67429;51.596;-3.264;2023-07-31T04:45:07;13;13;
78063;PMS5003;67429;51.596;-3.264;2023-07-31T04:47:32;13;13;
78063;PMS5003;67429;51.596;-3.264;2023-07-31T04:49:57;12;12;
78063;PMS5003;67429;51.596;-3.264;2023-07-31T04:52:23;13;12;
78063;PMS5003;67429;51.596;-3.264;2023-07-31T04:54:49;13;12;
78063;PMS5003;67429;51.596;-3.264;2023-07-31T04:57:14;15;15;
78063;PMS5003;67429;51.596;-3.264;2023-07-31T04:59:39;15;15;
78063;PMS5003;67429;51.596;-3.264;2023-07-31T05:02:04;12;12;
78063;PMS5003;67429;51.596;-3.264;2023-07-31T05:04:29;11;11;
78063;PMS5003;67429;51.596;-3.264;2023-07-31T05:06:55;14;12;
78063;PMS5003;67429;51.596;-3.264;2023-07-31T05:09:20;10;9;
78063;PMS5003;67429;51.596;-3.264;2023-07-31T05:11:46;10;9;
78063;PMS5003;67429;51.596;-3.264;2023-07-31T05:14:11;12;12;
78063;PMS5003;67429;51.596;-3.264;2023-07-31T05:16:37;10;10;
78063;PMS5003;67429;51.596;-3.264;2023-07-31T05:19:02;12;12;
78063;PMS5003;67429;51.596;-3.264;2023-07-31T05:21:28;13;13;
78063;PMS5003;67429;51.596;-3.264;2023-07-31T05:23:54;12;12;
78063;PMS5003;67429;51.596;-3.264;2023-07-31T05:26:19;12;12;
78063;PMS5003;67429;51.596;-3.264;2023-07-31T05:28:46;15;15;
78063;PMS5003;67429;51.596;-3.264;2023-07-31T05:31:11;15;15;
78063;PMS5003;67429;51.596;-3.264;2023-07-31T05:33:35;19;18;
78063;PMS5003;67429;51.596;-3.264;2023-07-31T05:36:01;17;17;
78063;PMS5003;67429;51.596;-3.264;2023-07-31T05:38:26;21;19;
78063;PMS5003;67429;51.596;-3.264;2023-07-31T05:40:52;18;16;
78063;PMS5003;67429;51.596;-3.264;2023-07-31T05:43:18;19;19;
78063;PMS5003;67429;51.596;-3.264;2023-07-31T05:45:43;15;15;
78063;PMS5003;67429;51.596;-3.264;2023-07-31T05:48:09;16;16;
78063;PMS5003;67429;51.596;-3.264;2023-07-31T05:50:34;17;16;
78063;PMS5003;67429;51.596;-3.264;2023-07-31T05:52:59;14;14;
78063;PMS5003;67429;51.596;-3.264;2023-07-31T05:55:24;13;13;
78063;PMS5003;67429;51.596;-3.264;2023-07-31T05:57:50;14;13;
78063;PMS5003;67429;51.596;-3.264;2023-07-31T06:00:15;13;13;
78063;PMS5003;67429;51.596;-3.264;2023-07-31T06:02:42;13;13;
78063;PMS5003;67429;51.596;-3.264;2023-07-31T06:05:07;14;13;
78063;PMS5003;67429;51.596;-3.264;2023-07-31T06:07:32;13;12;
78063;PMS5003;67429;51.596;-3.264;2023-07-31T06:09:57;14;14;
78063;PMS5003;67429;51.596;-3.264;2023-07-31T06:12:23;17;16;
78063;PMS5003;67429;51.596;-3.264;2023-07-31T06:14:49;14;14;
78063;PMS5003;67429;51.596;-3.264;2023-07-31T06:17:14;17;17;
78063;PMS5003;67429;51.596;-3.264;2023-07-31T06:19:40;15;14;
78063;PMS5003;67429;51.596;-3.264;2023-07-31T06:22:06;10;10;
78063;PMS5003;67429;51.596;-3.264;2023-07-31T06:24:31;10;9;
78063;PMS5003;67429;51.596;-3.264;2023-07-31T06:26:56;10;9;
78063;PMS5003;67429;51.596;-3.264;2023-07-31T06:29:21;6;5;
78063;PMS5003;67429;51.596;-3.264;2023-07-31T06:31:47;5;5;
78063;PMS5003;67429;51.596;-3.264;2023-07-31T06:34:12;8;6;
78063;PMS5003;67429;51.596;-3.264;2023-07-31T06:36:38;4;4;
78063;PMS5003;67429;51.596;-3.264;2023-07-31T06:39:03;6;6;
78063;PMS5003;67429;51.596;-3.264;2023-07-31T06:41:28;8;8;
78063;PMS5003;67429;51.596;-3.264;2023-07-31T06:43:53;7;6;
78063;PMS5003;67429;51.596;-3.264;2023-07-31T06:46:19;11;10;
78063;PMS5003;67429;51.596;-3.264;2023-07-31T06:48:45;9;9;
78063;PMS5003;67429;51.596;-3.264;2023-07-31T06:51:10;14;14;
78063;PMS5003;67429;51.596;-3.264;2023-07-31T06:53:36;11;10;
78063;PMS5003;67429;51.596;-3.264;2023-07-31T06:56:02;14;13;
78063;PMS5003;67429;51.596;-3.264;2023-07-31T06:58:27;16;16;
78063;PMS5003;67429;51.596;-3.264;2023-07-31T07:00:52;18;17;
78063;PMS5003;67429;51.596;-3.264;2023-07-31T07:03:18;15;14;
78063;PMS5003;67429;51.596;-3.264;2023-07-31T07:05:44;18;17;
78063;PMS5003;67429;51.596;-3.264;2023-07-31T07:08:09;14;14;
78063;PMS5003;67429;51.596;-3.264;2023-07-31T07:10:34;16;15;
78063;PMS5003;67429;51.596;-3.264;2023-07-31T07:12:59;19;16;
78063;PMS5003;67429;51.596;-3.264;2023-07-31T07:15:25;13;12;
78063;PMS5003;67429;51.596;-3.264;2023-07-31T07:17:51;11;11;
78063;PMS5003;67429;51.596;-3.264;2023-07-31T07:20:16;13;12;
78063;PMS5003;67429;51.596;-3.264;2023-07-31T07:22:42;9;9;
78063;PMS5003;67429;51.596;-3.264;2023-07-31T07:25:07;8;8;
78063;PMS5003;67429;51.596;-3.264;2023-07-31T07:27:32;8;8;
78063;PMS5003;67429;51.596;-3.264;2023-07-31T07:29:59;10;10;
78063;PMS5003;67429;51.596;-3.264;2023-07-31T07:32:23;10;10;
78063;PMS5003;67429;51.596;-3.264;2023-07-31T07:34:48;8;8;
78063;PMS5003;67429;51.596;-3.264;2023-07-31T07:37:13;13;12;
78063;PMS5003;67429;51.596;-3.264;2023-07-31T07:39:40;14;14;
78063;PMS5003;67429;51.596;-3.264;2023-07-31T07:42:04;14;13;
78063;PMS5003;67429;51.596;-3.264;2023-07-31T07:44:31;13;13;
78063;PMS5003;67429;51.596;-3.264;2023-07-31T07:46:55;17;16;
78063;PMS5003;67429;51.596;-3.264;2023-07-31T07:49:21;15;14;
78063;PMS5003;67429;51.596;-3.264;2023-07-31T07:51:46;12;12;
78063;PMS5003;67429;51.596;-3.264;2023-07-31T07:54:11;15;14;
78063;PMS5003;67429;51.596;-3.264;2023-07-31T07:56:37;18;15;
78063;PMS5003;67429;51.596;-3.264;2023-07-31T07:59:04;15;14;
78063;PMS5003;67429;51.596;-3.264;2023-07-31T08:01:28;15;15;
78063;PMS5003;67429;51.596;-3.264;2023-07-31T08:03:55;12;11;
78063;PMS5003;67429;51.596;-3.264;2023-07-31T08:06:20;14;14;
78063;PMS5003;67429;51.596;-3.264;2023-07-31T08:13:34;12;11;
78063;PMS5003;67429;51.596;-3.264;2023-07-31T08:15:59;15;14;
78063;PMS5003;67429;51.596;-3.264;2023-07-31T08:18:25;16;14;
78063;PMS5003;67429;51.596;-3.264;2023-07-31T08:20:50;15;15;
78063;PMS5003;67429;51.596;-3.264;2023-07-31T08:23:15;13;12;
78063;PMS5003;67429;51.596;-3.264;2023-07-31T08:25:41;12;12;
78063;PMS5003;67429;51.596;-3.264;2023-07-31T08:28:06;14;13;
78063;PMS5003;67429;51.596;-3.264;2023-07-31T08:30:32;13;13;
78063;PMS5003;67429;51.596;-3.264;2023-07-31T08:32:57;16;14;
78063;PMS5003;67429;51.596;-3.264;2023-07-31T08:35:23;13;12;
78063;PMS5003;67429;51.596;-3.264;2023-07-31T08:37:48;14;12;
78063;PMS5003;67429;51.596;-3.264;2023-07-31T08:40:15;15;14;
78063;PMS5003;67429;51.596;-3.264;2023-07-31T08:42:43;13;13;
78063;PMS5003;67429;51.596;-3.264;2023-07-31T08:45:05;12;10;
78063;PMS5003;67429;51.596;-3.264;2023-07-31T08:47:30;10;10;
78063;PMS5003;67429;51.596;-3.264;2023-07-31T08:49:57;13;12;
78063;PMS5003;67429;51.596;-3.264;2023-07-31T08:52:21;13;12;
78063;PMS5003;67429;51.596;-3.264;2023-07-31T08:54:47;12;12;
78063;PMS5003;67429;51.596;-3.264;2023-07-31T08:57:14;10;10;
78063;PMS5003;67429;51.596;-3.264;2023-07-31T08:59:38;10;9;
78063;PMS5003;67429;51.596;-3.264;2023-07-31T09:02:05;16;13;
78063;PMS5003;67429;51.596;-3.264;2023-07-31T09:04:29;11;11;
78063;PMS5003;67429;51.596;-3.264;2023-07-31T09:06:54;8;8;
78063;PMS5003;67429;51.596;-3.264;2023-07-31T09:09:20;12;12;
78063;PMS5003;67429;51.596;-3.264;2023-07-31T09:11:45;10;10;
78063;PMS5003;67429;51.596;-3.264;2023-07-31T09:14:12;11;10;
78063;PMS5003;67429;51.596;-3.264;2023-07-31T09:19:02;11;10;
78063;PMS5003;67429;51.596;-3.264;2023-07-31T09:21:29;9;8;
78063;PMS5003;67429;51.596;-3.264;2023-07-31T09:23:54;11;10;
78063;PMS5003;67429;51.596;-3.264;2023-07-31T09:26:29;12;11;
78063;PMS5003;67429;51.596;-3.264;2023-07-31T09:28:44;8;8;
78063;PMS5003;67429;51.596;-3.264;2023-07-31T09:31:10;11;11;
78063;PMS5003;67429;51.596;-3.264;2023-07-31T09:33:36;12;10;
78063;PMS5003;67429;51.596;-3.264;2023-07-31T09:36:02;7;7;
78063;PMS5003;67429;51.596;-3.264;2023-07-31T09:38:27;12;12;
78063;PMS5003;67429;51.596;-3.264;2023-07-31T09:40:50;12;10;
78063;PMS5003;67429;51.596;-3.264;2023-07-31T09:43:18;11;10;
78063;PMS5003;67429;51.596;-3.264;2023-07-31T09:45:42;12;11;
78063;PMS5003;67429;51.596;-3.264;2023-07-31T09:48:07;12;11;
78063;PMS5003;67429;51.596;-3.264;2023-07-31T09:50:33;13;12;
78063;PMS5003;67429;51.596;-3.264;2023-07-31T09:52:58;11;11;
78063;PMS5003;67429;51.596;-3.264;2023-07-31T09:55:24;11;10;
78063;PMS5003;67429;51.596;-3.264;2023-07-31T09:57:50;12;11;
78063;PMS5003;67429;51.596;-3.264;2023-07-31T10:00:16;12;12;
78063;PMS5003;67429;51.596;-3.264;2023-07-31T10:02:40;10;9;
78063;PMS5003;67429;51.596;-3.264;2023-07-31T10:05:06;12;10;
78063;PMS5003;67429;51.596;-3.264;2023-07-31T10:07:31;10;10;
78063;PMS5003;67429;51.596;-3.264;2023-07-31T10:09:57;12;9;
78063;PMS5003;67429;51.596;-3.264;2023-07-31T10:12:24;12;11;
78063;PMS5003;67429;51.596;-3.264;2023-07-31T10:14:49;10;9;
78063;PMS5003;67429;51.596;-3.264;2023-07-31T10:17:13;12;11;
78063;PMS5003;67429;51.596;-3.264;2023-07-31T10:19:38;11;10;
78063;PMS5003;67429;51.596;-3.264;2023-07-31T10:22:03;14;13;
78063;PMS5003;67429;51.596;-3.264;2023-07-31T10:24:30;14;13;
78063;PMS5003;67429;51.596;-3.264;2023-07-31T10:26:56;10;10;
78063;PMS5003;67429;51.596;-3.264;2023-07-31T10:29:20;11;11;
78063;PMS5003;67429;51.596;-3.264;2023-07-31T10:31:46;10;10;
78063;PMS5003;67429;51.596;-3.264;2023-07-31T10:34:11;12;11;
78063;PMS5003;67429;51.596;-3.264;2023-07-31T10:36:36;9;8;
78063;PMS5003;67429;51.596;-3.264;2023-07-31T10:39:03;15;13;
78063;PMS5003;67429;51.596;-3.264;2023-07-31T10:41:28;11;10;
78063;PMS5003;67429;51.596;-3.264;2023-07-31T10:43:54;11;11;
78063;PMS5003;67429;51.596;-3.264;2023-07-31T10:46:19;13;13;
78063;PMS5003;67429;51.596;-3.264;2023-07-31T10:48:43;11;10;
78063;PMS5003;67429;51.596;-3.264;2023-07-31T10:51:10;11;10;
78063;PMS5003;67429;51.596;-3.264;2023-07-31T10:53:34;13;12;
78063;PMS5003;67429;51.596;-3.264;2023-07-31T10:56:00;12;9;
78063;PMS5003;67429;51.596;-3.264;2023-07-31T10:58:26;13;12;
78063;PMS5003;67429;51.596;-3.264;2023-07-31T11:00:55;13;13;
78063;PMS5003;67429;51.596;-3.264;2023-07-31T11:03:18;11;10;
78063;PMS5003;67429;51.596;-3.264;2023-07-31T11:05:45;14;14;
78063;PMS5003;67429;51.596;-3.264;2023-07-31T11:08:13;12;11;
78063;PMS5003;67429;51.596;-3.264;2023-07-31T11:10:33;15;11;
78063;PMS5003;67429;51.596;-3.264;2023-07-31T11:12:58;16;15;
78063;PMS5003;67429;51.596;-3.264;2023-07-31T11:15:27;14;13;
78063;PMS5003;67429;51.596;-3.264;2023-07-31T11:17:50;12;8;
78063;PMS5003;67429;51.596;-3.264;2023-07-31T11:20:15;12;12;
78063;PMS5003;67429;51.596;-3.264;2023-07-31T11:22:40;12;12;
78063;PMS5003;67429;51.596;-3.264;2023-07-31T11:25:06;13;13;
78063;PMS5003;67429;51.596;-3.264;2023-07-31T11:27:38;10;10;
78063;PMS5003;67429;51.596;-3.264;2023-07-31T11:30:00;13;11;
78063;PMS5003;67429;51.596;-3.264;2023-07-31T11:32:22;18;15;
78063;PMS5003;67429;51.596;-3.264;2023-07-31T11:34:51;18;16;
78063;PMS5003;67429;51.596;-3.264;2023-07-31T11:37:14;12;12;
78063;PMS5003;67429;51.596;-3.264;2023-07-31T11:39:39;16;13;
78063;PMS5003;67429;51.596;-3.264;2023-07-31T11:42:05;12;10;
78063;PMS5003;67429;51.596;-3.264;2023-07-31T11:46:56;11;11;
78063;PMS5003;67429;51.596;-3.264;2023-07-31T11:49:21;15;14;
78063;PMS5003;67429;51.596;-3.264;2023-07-31T11:51:46;12;11;
78063;PMS5003;67429;51.596;-3.264;2023-07-31T11:54:11;13;12;
78063;PMS5003;67429;51.596;-3.264;2023-07-31T11:56:38;13;10;
78063;PMS5003;67429;51.596;-3.264;2023-07-31T11:59:03;17;15;
78063;PMS5003;67429;51.596;-3.264;2023-07-31T12:01:28;11;10;
78063;PMS5003;67429;51.596;-3.264;2023-07-31T12:03:53;14;13;
78063;PMS5003;67429;51.596;-3.264;2023-07-31T12:06:19;13;13;
78063;PMS5003;67429;51.596;-3.264;2023-07-31T12:08:44;13;13;
78063;PMS5003;67429;51.596;-3.264;2023-07-31T12:11:11;12;12;
78063;PMS5003;67429;51.596;-3.264;2023-07-31T12:13:36;15;14;
78063;PMS5003;67429;51.596;-3.264;2023-07-31T12:16:03;16;14;
78063;PMS5003;67429;51.596;-3.264;2023-07-31T12:18:28;13;12;
78063;PMS5003;67429;51.596;-3.264;2023-07-31T12:20:54;14;12;
78063;PMS5003;67429;51.596;-3.264;2023-07-31T12:23:18;12;11;
78063;PMS5003;67429;51.596;-3.264;2023-07-31T12:25:43;13;12;
78063;PMS5003;67429;51.596;-3.264;2023-07-31T12:28:09;12;12;
78063;PMS5003;67429;51.596;-3.264;2023-07-31T12:30:34;17;14;
78063;PMS5003;67429;51.596;-3.264;2023-07-31T12:33:04;15;13;
78063;PMS5003;67429;51.596;-3.264;2023-07-31T12:35:30;13;12;
78063;PMS5003;67429;51.596;-3.264;2023-07-31T12:37:51;14;13;
78063;PMS5003;67429;51.596;-3.264;2023-07-31T12:40:16;12;12;
78063;PMS5003;67429;51.596;-3.264;2023-07-31T12:42:42;13;12;
78063;PMS5003;67429;51.596;-3.264;2023-07-31T12:45:08;13;12;
78063;PMS5003;67429;51.596;-3.264;2023-07-31T12:47:33;11;11;
78063;PMS5003;67429;51.596;-3.264;2023-07-31T12:50:03;13;13;
78063;PMS5003;67429;51.596;-3.264;2023-07-31T12:52:23;13;13;
78063;PMS5003;67429;51.596;-3.264;2023-07-31T12:54:49;14;13;
78063;PMS5003;67429;51.596;-3.264;2023-07-31T12:57:14;15;13;
78063;PMS5003;67429;51.596;-3.264;2023-07-31T12:59:39;16;15;
78063;PMS5003;67429;51.596;-3.264;2023-07-31T13:02:05;14;14;
78063;PMS5003;67429;51.596;-3.264;2023-07-31T13:04:30;12;12;
78063;PMS5003;67429;51.596;-3.264;2023-07-31T13:06:57;16;14;
78063;PMS5003;67429;51.596;-3.264;2023-07-31T13:09:21;20;18;
78063;PMS5003;67429;51.596;-3.264;2023-07-31T13:11:48;17;14;
78063;PMS5003;67429;51.596;-3.264;2023-07-31T13:14:12;13;13;
78063;PMS5003;67429;51.596;-3.264;2023-07-31T13:16:38;14;13;
78063;PMS5003;67429;51.596;-3.264;2023-07-31T13:19:03;15;14;
78063;PMS5003;67429;51.596;-3.264;2023-07-31T13:21:29;16;16;
78063;PMS5003;67429;51.596;-3.264;2023-07-31T13:23:56;13;12;
78063;PMS5003;67429;51.596;-3.264;2023-07-31T13:26:21;10;10;
78063;PMS5003;67429;51.596;-3.264;2023-07-31T13:28:46;14;12;
78063;PMS5003;67429;51.596;-3.264;2023-07-31T13:31:11;11;10;
78063;PMS5003;67429;51.596;-3.264;2023-07-31T13:33:36;12;9;
78063;PMS5003;67429;51.596;-3.264;2023-07-31T13:36:02;11;10;
78063;PMS5003;67429;51.596;-3.264;2023-07-31T13:38:27;10;9;
78063;PMS5003;67429;51.596;-3.264;2023-07-31T13:40:54;11;10;
78063;PMS5003;67429;51.596;-3.264;2023-07-31T13:43:18;13;11;
78063;PMS5003;67429;51.596;-3.264;2023-07-31T13:45:44;12;12;
78063;PMS5003;67429;51.596;-3.264;2023-07-31T13:48:09;11;10;
78063;PMS5003;67429;51.596;-3.264;2023-07-31T13:50:35;12;12;
78063;PMS5003;67429;51.596;-3.264;2023-07-31T13:53:00;10;9;
78063;PMS5003;67429;51.596;-3.264;2023-07-31T13:55:25;11;10;
78063;PMS5003;67429;51.596;-3.264;2023-07-31T13:57:51;10;10;
78063;PMS5003;67429;51.596;-3.264;2023-07-31T14:00:15;10;9;
78063;PMS5003;67429;51.596;-3.264;2023-07-31T14:02:41;8;8;
78063;PMS5003;67429;51.596;-3.264;2023-07-31T14:05:07;11;9;
78063;PMS5003;67429;51.596;-3.264;2023-07-31T14:07:32;9;9;
78063;PMS5003;67429;51.596;-3.264;2023-07-31T14:09:58;9;9;
78063;PMS5003;67429;51.596;-3.264;2023-07-31T14:12:23;8;8;
78063;PMS5003;67429;51.596;-3.264;2023-07-31T14:14:48;15;13;
78063;PMS5003;67429;51.596;-3.264;2023-07-31T14:17:14;9;9;
78063;PMS5003;67429;51.596;-3.264;2023-07-31T14:19:40;9;8;
78063;PMS5003;67429;51.596;-3.264;2023-07-31T14:22:04;10;10;
78063;PMS5003;67429;51.596;-3.264;2023-07-31T14:24:29;8;8;
78063;PMS5003;67429;51.596;-3.264;2023-07-31T14:26:55;8;8;
78063;PMS5003;67429;51.596;-3.264;2023-07-31T14:29:20;11;9;
78063;PMS5003;67429;51.596;-3.264;2023-07-31T14:31:46;12;10;
78063;PMS5003;67429;51.596;-3.264;2023-07-31T14:34:11;10;9;
78063;PMS5003;67429;51.596;-3.264;2023-07-31T14:36:37;12;11;
78063;PMS5003;67429;51.596;-3.264;2023-07-31T14:39:02;16;14;
78063;PMS5003;67429;51.596;-3.264;2023-07-31T14:41:27;10;10;
78063;PMS5003;67429;51.596;-3.264;2023-07-31T14:43:52;11;11;
78063;PMS5003;67429;51.596;-3.264;2023-07-31T14:46:18;10;9;
78063;PMS5003;67429;51.596;-3.264;2023-07-31T14:48:43;9;8;
78063;PMS5003;67429;51.596;-3.264;2023-07-31T14:51:08;8;8;
78063;PMS5003;67429;51.596;-3.264;2023-07-31T14:53:34;11;11;
78063;PMS5003;67429;51.596;-3.264;2023-07-31T14:55:59;12;12;
78063;PMS5003;67429;51.596;-3.264;2023-07-31T14:58:25;8;8;
78063;PMS5003;67429;51.596;-3.264;2023-07-31T15:00:50;12;11;
78063;PMS5003;67429;51.596;-3.264;2023-07-31T15:03:15;11;9;
78063;PMS5003;67429;51.596;-3.264;2023-07-31T15:05:40;10;10;
78063;PMS5003;67429;51.596;-3.264;2023-07-31T15:08:07;15;14;
78063;PMS5003;67429;51.596;-3.264;2023-07-31T15:10:32;11;11;
78063;PMS5003;67429;51.596;-3.264;2023-07-31T15:12:57;12;10;
78063;PMS5003;67429;51.596;-3.264;2023-07-31T15:15:22;10;9;
78063;PMS5003;67429;51.596;-3.264;2023-07-31T15:17:47;9;9;
78063;PMS5003;67429;51.596;-3.264;2023-07-31T15:20:13;8;8;
78063;PMS5003;67429;51.596;-3.264;2023-07-31T15:22:39;7;7;
78063;PMS5003;67429;51.596;-3.264;2023-07-31T15:25:04;9;8;
78063;PMS5003;67429;51.596;-3.264;2023-07-31T15:27:29;7;7;
78063;PMS5003;67429;51.596;-3.264;2023-07-31T15:29:56;10;10;
78063;PMS5003;67429;51.596;-3.264;2023-07-31T15:32:21;10;10;
78063;PMS5003;67429;51.596;-3.264;2023-07-31T15:34:45;9;8;
78063;PMS5003;67429;51.596;-3.264;2023-07-31T15:37:11;8;8;
78063;PMS5003;67429;51.596;-3.264;2023-07-31T15:39:36;8;8;
78063;PMS5003;67429;51.596;-3.264;2023-07-31T15:42:03;10;8;
78063;PMS5003;67429;51.596;-3.264;2023-07-31T15:44:27;11;9;
78063;PMS5003;67429;51.596;-3.264;2023-07-31T15:46:52;11;11;
78063;PMS5003;67429;51.596;-3.264;2023-07-31T15:49:18;10;9;
78063;PMS5003;67429;51.596;-3.264;2023-07-31T15:51:43;9;9;
78063;PMS5003;67429;51.596;-3.264;2023-07-31T15:54:09;9;9;
78063;PMS5003;67429;51.596;-3.264;2023-07-31T15:56:34;10;9;
78063;PMS5003;67429;51.596;-3.264;2023-07-31T15:59:00;9;8;
78063;PMS5003;67429;51.596;-3.264;2023-07-31T16:01:25;11;10;
78063;PMS5003;67429;51.596;-3.264;2023-07-31T16:03:52;8;7;
78063;PMS5003;67429;51.596;-3.264;2023-07-31T16:06:17;8;8;
78063;PMS5003;67429;51.596;-3.264;2023-07-31T16:08:42;11;10;